Time;durP1;ratioP1;P1;durP2;ratioP2;P2;SDS_P1;SDS_P2;PMS_P1;PMS_P2;Temp;Humidity;BMP_temperature;BMP_pressure;BME280_temperature;BME280_humidity;BME280_pressure;Samples;Min_cycle;Max_cycle;Signal;HPM_P1;HPM_P2
2021/12/18 00:00:34;;;;;;;;;;;;;;;;;;5095250;28;1186;-86
2021/12/18 00:02:59;;;;;;;;;;;;;;;;;;5094812;28;1160;-86
2021/12/18 00:05:25;;;;;;;;;;;;;;;;;;5072595;28;1168;-86
2021/12/18 00:07:51;;;;;;;;;;;;;;;;;;5072739;28;1191;-85
2021/12/18 00:10:22;;;;;;;;;;;;;;;;;;5080240;28;1165;-86
2021/12/18 00:12:52;;;;;;;;;;;;;;;;;;5082036;28;1109;-86
2021/12/18 00:15:21;;;;;;;;;;;;;;;;;;5064067;28;1253;-85
2021/12/18 00:17:47;;;;;;;;;;;;;;;;;;5071306;28;1955;-85
2021/12/18 00:20:21;;;;;;;;;;;;;;;;;;5089389;28;1273;-85
2021/12/18 00:22:47;;;;;;;;;;;;;;;;;;5091006;28;1164;-86
2021/12/18 00:25:12;;;;;;;;;;;;;;;;;;5090179;28;1235;-85
2021/12/18 00:27:38;;;;;;;;;;;;;;;;;;5086208;28;1160;-85
2021/12/18 00:30:04;;;;;;;;;;;;;;;;;;5073553;28;1268;-85
2021/12/18 00:32:29;;;;;;;;;;;;;;;;;;5070795;28;1302;-85
2021/12/18 00:34:55;;;;;;;;;;;;;;;;;;5078745;28;1152;-85
2021/12/18 00:37:20;;;;;;;;;;;;;;;;;;5082886;28;1901;-85
2021/12/18 00:39:55;;;;;;;;;;;;;;;;;;5079660;28;1254;-85
2021/12/18 00:42:36;;;;;;;;;;;;;;;;;;5079920;28;1142;-84
2021/12/18 00:45:06;;;;;;;;;;;;;;;;;;5071971;28;1107;-85
2021/12/18 00:47:31;;;;;;;;;;;;;;;;;;5084418;28;1266;-85
2021/12/18 00:49:56;;;;;;;;;;;;;;;;;;5070747;28;1320;-85
2021/12/18 00:52:23;;;;;;;;;;;;;;;;;;5085901;28;1067;-84
2021/12/18 00:54:48;;;;;;;;;;;;;;;;;;5095404;28;1183;-85
2021/12/18 00:57:14;;;;;;;;;;;;;;;;;;5074247;28;1894;-85
2021/12/18 00:59:39;;;;;;;;;;;;;;;;;;5086038;28;1144;-85
2021/12/18 01:02:04;;;;;;;;;;;;;;;;;;5074499;28;1143;-85
2021/12/18 01:04:30;;;;;;;;;;;;;;;;;;5072396;28;1184;-85
2021/12/18 01:06:55;;;;;;;;;;;;;;;;;;5081061;28;1124;-85
2021/12/18 01:09:30;;;;;;;;;;;;;;;;;;5080898;28;1139;-86
2021/12/18 01:11:56;;;;;;;;;;;;;;;;;;5064095;28;1209;-84
2021/12/18 01:14:33;;;;;;;;;;;;;;;;;;5068886;28;1153;-84
2021/12/18 01:25:02;;;;;;;;;;;;;;;;;;5074262;28;1114;-85
2021/12/18 01:27:27;;;;;;;;;;;;;;;;;;5083803;28;1273;-85
2021/12/18 01:29:56;;;;;;;;;;;;;;;;;;5075261;28;1277;-84
2021/12/18 01:32:23;;;;;;;;;;;;;;;;;;5088581;28;1084;-84
2021/12/18 01:34:48;;;;;;;;;;;;;;;;;;5082510;28;1361;-84
2021/12/18 01:37:14;;;;;;;;;;;;;;;;;;5085915;28;1975;-85
2021/12/18 01:39:39;;;;;;;;;;;;;;;;;;5085279;28;1143;-84
2021/12/18 01:53:18;;;;;;;;;;;;;;;;;;5087489;28;1047;-85
2021/12/18 01:55:44;;;;;;;;;;;;;;;;;;5087612;28;1258;-84
2021/12/18 01:58:09;;;;;;;;;;;;;;;;;;5060973;28;1886;-85
2021/12/18 02:00:40;;;;;;;;;;;;;;;;;;5068298;28;1222;-84
2021/12/18 02:03:06;;;;;;;;;;;;;;;;;;5085679;28;1295;-85
2021/12/18 02:05:31;;;;;;;;;;;;;;;;;;5080123;28;1211;-85
2021/12/18 02:08:01;;;;;;;;;;;;;;;;;;5065555;28;1263;-85
2021/12/18 02:10:30;;;;;;;;;;;;;;;;;;5065128;28;1164;-85
2021/12/18 02:21:22;;;;;;;;;;;;;;;;;;5077187;28;1249;-84
2021/12/18 02:23:47;;;;;;;;;;;;;;;;;;5055702;28;1361;-85
2021/12/18 02:26:13;;;;;;;;;;;;;;;;;;5074145;28;1139;-84
2021/12/18 02:28:39;;;;;;;;;;;;;;;;;;5057605;28;1195;-85
2021/12/18 02:31:05;;;;;;;;;;;;;;;;;;5050968;28;1190;-84
2021/12/18 02:33:30;;;;;;;;;;;;;;;;;;5075900;28;1255;-85
2021/12/18 02:35:58;;;;;;;;;;;;;;;;;;5063547;28;1184;-85
2021/12/18 02:38:31;;;;;;;;;;;;;;;;;;5065028;28;1906;-85
2021/12/18 02:41:10;;;;;;;;;;;;;;;;;;5081771;28;1333;-85
2021/12/18 02:43:37;;;;;;;;;;;;;;;;;;5067959;28;1079;-85
2021/12/18 02:46:07;;;;;;;;;;;;;;;;;;5063660;28;1247;-84
2021/12/18 02:48:33;;;;;;;;;;;;;;;;;;5082551;28;1120;-85
2021/12/18 02:51:06;;;;;;;;;;;;;;;;;;5070395;28;1163;-85
2021/12/18 02:53:32;;;;;;;;;;;;;;;;;;5074652;28;1096;-85
2021/12/18 02:55:58;;;;;;;;;;;;;;;;;;5078284;28;1306;-85
2021/12/18 02:58:24;;;;;;;;;;;;;;;;;;5076407;28;1893;-85
2021/12/18 03:00:51;;;;;;;;;;;;;;;;;;5075136;28;1159;-84
2021/12/18 03:03:17;;;;;;;;;;;;;;;;;;5060654;28;1415;-84
2021/12/18 03:05:54;;;;;;;;;;;;;;;;;;5053326;28;1332;-85
2021/12/18 03:08:33;;;;;;;;;;;;;;;;;;5079602;28;1410;-85
2021/12/18 03:27:16;;;;;;;;;;;;;;;;;;5075071;28;1035;-84
2021/12/18 03:29:42;;;;;;;;;;;;;;;;;;5077578;28;1119;-84
2021/12/18 03:32:07;;;;;;;;;;;;;;;;;;5084671;28;1104;-84
2021/12/18 03:34:32;;;;;;;;;;;;;;;;;;5080222;28;1170;-84
2021/12/18 03:36:58;;;;;;;;;;;;;;;;;;5070790;28;1104;-84
2021/12/18 03:39:23;;;;;;;;;;;;;;;;;;5072707;28;1985;-84
2021/12/18 03:41:48;;;;;;;;;;;;;;;;;;5061700;28;1182;-85
2021/12/18 03:44:14;;;;;;;;;;;;;;;;;;5064788;28;1341;-84
2021/12/18 03:46:39;;;;;;;;;;;;;;;;;;5051314;28;1184;-84
2021/12/18 03:49:05;;;;;;;;;;;;;;;;;;5073707;28;1159;-84
2021/12/18 03:51:31;;;;;;;;;;;;;;;;;;5076348;28;1210;-84
2021/12/18 03:53:56;;;;;;;;;;;;;;;;;;5080306;28;1148;-84
2021/12/18 03:56:21;;;;;;;;;;;;;;;;;;5079173;28;1132;-85
2021/12/18 03:58:47;;;;;;;;;;;;;;;;;;5079349;28;1964;-84
2021/12/18 04:01:12;;;;;;;;;;;;;;;;;;5084265;28;1171;-84
2021/12/18 04:03:38;;;;;;;;;;;;;;;;;;5070276;28;1210;-84
2021/12/18 04:06:03;;;;;;;;;;;;;;;;;;5083095;28;1219;-85
2021/12/18 04:08:28;;;;;;;;;;;;;;;;;;5066900;28;1320;-83
2021/12/18 04:10:53;;;;;;;;;;;;;;;;;;5074018;28;1199;-85
2021/12/18 04:13:19;;;;;;;;;;;;;;;;;;5081719;28;1076;-84
2021/12/18 04:15:44;;;;;;;;;;;;;;;;;;5066434;28;1181;-84
2021/12/18 04:18:10;;;;;;;;;;;;;;;;;;5061123;28;1973;-85
2021/12/18 04:20:35;;;;;;;;;;;;;;;;;;5075615;28;1235;-84
2021/12/18 04:23:01;;;;;;;;;;;;;;;;;;5057341;28;1278;-84
2021/12/18 04:25:27;;;;;;;;;;;;;;;;;;5077013;28;1321;-84
2021/12/18 04:27:52;;;;;;;;;;;;;;;;;;5084388;28;1170;-84
2021/12/18 04:30:18;;;;;;;;;;;;;;;;;;5074385;28;1173;-83
2021/12/18 04:32:43;;;;;;;;;;;;;;;;;;5066302;28;1207;-83
2021/12/18 04:35:14;;;;;;;;;;;;;;;;;;5066634;28;1171;-84
2021/12/18 04:37:39;;;;;;;;;;;;;;;;;;5084321;28;1906;-84
2021/12/18 04:40:05;;;;;;;;;;;;;;;;;;5071359;28;1156;-84
2021/12/18 04:42:30;;;;;;;;;;;;;;;;;;5069634;28;1116;-84
2021/12/18 04:44:55;;;;;;;;;;;;;;;;;;5075085;28;1211;-84
2021/12/18 04:47:21;;;;;;;;;;;;;;;;;;5065265;28;1214;-84
2021/12/18 04:49:46;;;;;;;;;;;;;;;;;;5082968;28;1218;-84
2021/12/18 04:52:15;;;;;;;;;;;;;;;;;;5068754;28;1214;-84
2021/12/18 04:54:41;;;;;;;;;;;;;;;;;;5079862;28;1235;-83
2021/12/18 04:57:06;;;;;;;;;;;;;;;;;;5059384;28;1195;-83
2021/12/18 04:59:31;;;;;;;;;;;;;;;;;;5067040;28;1897;-84
2021/12/18 05:01:57;;;;;;;;;;;;;;;;;;5065749;28;1159;-84
2021/12/18 05:04:23;;;;;;;;;;;;;;;;;;5078082;28;1279;-83
2021/12/18 05:06:51;;;;;;;;;;;;;;;;;;5077921;28;1176;-84
2021/12/18 05:09:20;;;;;;;;;;;;;;;;;;5083091;28;1237;-83
2021/12/18 05:11:46;;;;;;;;;;;;;;;;;;5063019;28;1101;-84
2021/12/18 05:14:11;;;;;;;;;;;;;;;;;;5081935;28;1211;-84
2021/12/18 05:16:37;;;;;;;;;;;;;;;;;;5074381;28;1234;-84
2021/12/18 05:19:03;;;;;;;;;;;;;;;;;;5072222;28;1910;-84
2021/12/18 05:21:28;;;;;;;;;;;;;;;;;;5068256;28;1222;-84
2021/12/18 05:23:54;;;;;;;;;;;;;;;;;;5068327;28;1211;-84
2021/12/18 05:26:19;;;;;;;;;;;;;;;;;;5073429;28;1415;-84
2021/12/18 05:28:44;;;;;;;;;;;;;;;;;;5060170;28;1178;-84
2021/12/18 05:31:12;;;;;;;;;;;;;;;;;;5062169;28;1231;-84
2021/12/18 05:33:38;;;;;;;;;;;;;;;;;;5077637;28;1159;-83
2021/12/18 05:36:13;;;;;;;;;;;;;;;;;;5069983;28;1358;-84
2021/12/18 05:38:39;;;;;;;;;;;;;;;;;;5067596;28;1914;-83
2021/12/18 05:41:04;;;;;;;;;;;;;;;;;;5074699;28;1201;-83
2021/12/18 05:43:29;;;;;;;;;;;;;;;;;;5073031;28;1009;-83
2021/12/18 05:45:54;;;;;;;;;;;;;;;;;;5069698;28;1223;-83
2021/12/18 05:48:20;;;;;;;;;;;;;;;;;;5076254;28;1159;-83
2021/12/18 05:50:46;;;;;;;;;;;;;;;;;;5067437;28;1252;-83
2021/12/18 05:53:13;;;;;;;;;;;;;;;;;;5072840;28;1236;-84
2021/12/18 05:55:38;;;;;;;;;;;;;;;;;;5067394;28;1434;-84
2021/12/18 05:58:04;;;;;;;;;;;;;;;;;;5052515;28;1943;-83
2021/12/18 06:00:29;;;;;;;;;;;;;;;;;;5063811;28;1111;-83
2021/12/18 06:02:54;;;;;;;;;;;;;;;;;;5056359;28;1155;-84
2021/12/18 06:05:20;;;;;;;;;;;;;;;;;;5067190;28;1141;-84
2021/12/18 06:07:54;;;;;;;;;;;;;;;;;;5059068;28;1212;-83
2021/12/18 06:10:21;;;;;;;;;;;;;;;;;;5071408;28;1218;-83
2021/12/18 06:12:46;;;;;;;;;;;;;;;;;;5073774;28;1416;-84
2021/12/18 06:15:12;;;;;;;;;;;;;;;;;;5076914;28;1156;-84
2021/12/18 06:17:37;;;;;;;;;;;;;;;;;;5069235;28;1878;-83
2021/12/18 06:20:02;;;;;;;;;;;;;;;;;;5073022;28;1219;-83
2021/12/18 06:22:27;;;;;;;;;;;;;;;;;;5075817;28;1273;-83
2021/12/18 06:24:53;;;;;;;;;;;;;;;;;;5066935;28;1200;-83
2021/12/18 06:27:22;;;;;;;;;;;;;;;;;;5080965;28;1241;-83
2021/12/18 06:29:48;;;;;;;;;;;;;;;;;;5082576;28;1716;-83
2021/12/18 06:32:13;;;;;;;;;;;;;;;;;;5071704;28;1194;-83
2021/12/18 06:34:39;;;;;;;;;;;;;;;;;;5070530;28;1063;-82
2021/12/18 06:37:04;;;;;;;;;;;;;;;;;;5063795;28;1226;-84
2021/12/18 06:39:30;;;;;;;;;;;;;;;;;;5046191;28;1910;-84
2021/12/18 06:41:55;;;;;;;;;;;;;;;;;;5065802;28;1175;-83
2021/12/18 06:44:21;;;;;;;;;;;;;;;;;;5082129;28;1219;-84
2021/12/18 06:46:47;;;;;;;;;;;;;;;;;;5060212;28;1180;-84
2021/12/18 06:49:12;;;;;;;;;;;;;;;;;;5083843;28;1264;-84
2021/12/18 06:51:38;;;;;;;;;;;;;;;;;;5067615;28;1041;-84
2021/12/18 06:54:03;;;;;;;;;;;;;;;;;;5078506;28;1197;-83
2021/12/18 06:56:30;;;;;;;;;;;;;;;;;;5061648;28;1179;-83
2021/12/18 06:58:55;;;;;;;;;;;;;;;;;;5066640;28;1944;-84
2021/12/18 07:01:22;;;;;;;;;;;;;;;;;;5074987;28;1183;-83
2021/12/18 07:03:47;;;;;;;;;;;;;;;;;;5070093;28;1156;-83
2021/12/18 07:06:12;;;;;;;;;;;;;;;;;;5074365;28;1136;-81
2021/12/18 07:08:38;;;;;;;;;;;;;;;;;;5056384;28;1263;-84
2021/12/18 07:11:03;;;;;;;;;;;;;;;;;;5074245;28;1196;-83
2021/12/18 07:13:29;;;;;;;;;;;;;;;;;;5078942;28;1152;-83
2021/12/18 07:15:54;;;;;;;;;;;;;;;;;;5071686;28;1328;-83
2021/12/18 07:18:19;;;;;;;;;;;;;;;;;;5048133;28;1939;-82
2021/12/18 07:20:44;;;;;;;;;;;;;;;;;;5077359;28;1287;-83
2021/12/18 07:23:10;;;;;;;;;;;;;;;;;;5076657;28;1186;-85
2021/12/18 07:25:35;;;;;;;;;;;;;;;;;;5066691;28;1430;-83
2021/12/18 07:28:00;;;;;;;;;;;;;;;;;;5082712;28;1285;-82
2021/12/18 07:30:27;;;;;;;;;;;;;;;;;;5082115;28;1372;-82
2021/12/18 07:32:52;;;;;;;;;;;;;;;;;;5051470;28;1323;-82
2021/12/18 07:35:18;;;;;;;;;;;;;;;;;;5048726;28;1345;-82
2021/12/18 07:37:43;;;;;;;;;;;;;;;;;;5076219;28;1894;-82
2021/12/18 07:40:09;;;;;;;;;;;;;;;;;;5052441;28;1378;-81
2021/12/18 07:42:34;;;;;;;;;;;;;;;;;;5072861;28;1214;-82
2021/12/18 07:45:00;;;;;;;;;;;;;;;;;;5085539;28;1368;-81
2021/12/18 07:47:26;;;;;;;;;;;;;;;;;;5078700;28;1293;-82
2021/12/18 07:49:52;;;;;;;;;;;;;;;;;;5079246;28;1322;-82
2021/12/18 07:52:17;;;;;;;;;;;;;;;;;;5064373;28;1417;-82
2021/12/18 07:54:42;;;;;;;;;;;;;;;;;;5082690;28;1085;-82
2021/12/18 07:57:08;;;;;;;;;;;;;;;;;;5077564;28;1396;-80
2021/12/18 07:59:33;;;;;;;;;;;;;;;;;;5067372;28;1930;-81
2021/12/18 08:02:00;;;;;;;;;;;;;;;;;;5077600;28;1136;-81
2021/12/18 08:04:27;;;;;;;;;;;;;;;;;;5072790;28;1292;-80
2021/12/18 08:06:52;;;;;;;;;;;;;;;;;;5052996;28;1302;-81
2021/12/18 08:09:18;;;;;;;;;;;;;;;;;;5087391;28;1168;-80
2021/12/18 08:11:44;;;;;;;;;;;;;;;;;;5077950;28;1037;-79
2021/12/18 08:14:09;;;;;;;;;;;;;;;;;;5067190;28;1349;-79
2021/12/18 08:16:34;;;;;;;;;;;;;;;;;;5065318;28;1287;-80
2021/12/18 08:19:00;;;;;;;;;;;;;;;;;;5071219;28;1922;-82
2021/12/18 08:21:25;;;;;;;;;;;;;;;;;;5062184;28;1365;-82
2021/12/18 08:23:51;;;;;;;;;;;;;;;;;;5074089;28;1223;-81
2021/12/18 08:26:16;;;;;;;;;;;;;;;;;;5057793;28;1294;-80
2021/12/18 08:28:41;;;;;;;;;;;;;;;;;;5077148;28;1295;-81
2021/12/18 08:31:06;;;;;;;;;;;;;;;;;;5073545;28;1356;-81
2021/12/18 08:33:32;;;;;;;;;;;;;;;;;;5086288;28;1140;-81
2021/12/18 08:35:57;;;;;;;;;;;;;;;;;;5077080;28;1304;-81
2021/12/18 08:38:22;;;;;;;;;;;;;;;;;;5081287;28;2036;-82
2021/12/18 08:40:49;;;;;;;;;;;;;;;;;;5051511;28;1158;-82
2021/12/18 08:43:15;;;;;;;;;;;;;;;;;;5073794;28;1207;-81
2021/12/18 08:45:40;;;;;;;;;;;;;;;;;;5078506;28;1334;-81
2021/12/18 08:48:05;;;;;;;;;;;;;;;;;;5066760;28;1271;-80
2021/12/18 08:50:33;;;;;;;;;;;;;;;;;;5083844;28;1280;-80
2021/12/18 08:52:59;;;;;;;;;;;;;;;;;;5069699;28;1211;-79
2021/12/18 08:55:24;;;;;;;;;;;;;;;;;;5073962;28;1301;-80
2021/12/18 08:57:50;;;;;;;;;;;;;;;;;;5072563;28;1995;-81
2021/12/18 09:00:17;;;;;;;;;;;;;;;;;;5064810;28;1423;-81
2021/12/18 09:02:44;;;;;;;;;;;;;;;;;;5063867;28;1227;-79
2021/12/18 09:05:19;;;;;;;;;;;;;;;;;;5070406;28;1278;-80
2021/12/18 09:07:44;;;;;;;;;;;;;;;;;;5067276;28;1273;-81
2021/12/18 09:10:10;;;;;;;;;;;;;;;;;;5081980;28;1199;-81
2021/12/18 09:12:35;;;;;;;;;;;;;;;;;;5083281;28;1242;-80
2021/12/18 09:15:01;;;;;;;;;;;;;;;;;;5088000;28;1159;-81
2021/12/18 09:17:26;;;;;;;;;;;;;;;;;;5081110;28;1226;-81
2021/12/18 09:19:51;;;;;;;;;;;;;;;;;;5070194;28;1960;-80
2021/12/18 09:22:17;;;;;;;;;;;;;;;;;;5074945;28;1294;-80
2021/12/18 09:24:43;;;;;;;;;;;;;;;;;;5064197;28;1288;-81
2021/12/18 09:27:08;;;;;;;;;;;;;;;;;;5077181;28;1132;-81
2021/12/18 09:29:37;;;;;;;;;;;;;;;;;;5084351;28;1187;-81
2021/12/18 09:32:02;;;;;;;;;;;;;;;;;;5080310;28;1336;-81
2021/12/18 09:34:30;;;;;;;;;;;;;;;;;;5070498;28;1203;-80
2021/12/18 09:36:55;;;;;;;;;;;;;;;;;;5061042;28;1213;-82
2021/12/18 09:39:21;;;;;;;;;;;;;;;;;;5056675;28;1934;-81
2021/12/18 09:41:49;;;;;;;;;;;;;;;;;;5063142;28;1129;-81
2021/12/18 09:44:22;;;;;;;;;;;;;;;;;;5061872;28;1214;-81
2021/12/18 09:46:47;;;;;;;;;;;;;;;;;;5083995;28;1089;-81
2021/12/18 09:49:13;;;;;;;;;;;;;;;;;;5081865;28;1202;-81
2021/12/18 09:51:38;;;;;;;;;;;;;;;;;;5072257;28;1112;-80
2021/12/18 09:54:04;;;;;;;;;;;;;;;;;;5082628;28;1353;-81
2021/12/18 09:56:38;;;;;;;;;;;;;;;;;;5083879;28;1159;-82
2021/12/18 09:59:04;;;;;;;;;;;;;;;;;;5049971;28;1908;-81
2021/12/18 10:01:29;;;;;;;;;;;;;;;;;;5068281;28;1207;-80
2021/12/18 10:03:58;;;;;;;;;;;;;;;;;;5060158;28;1124;-81
2021/12/18 10:06:50;;;;;;;;;;;;;;;;;;5072117;28;1179;-81
2021/12/18 10:09:19;;;;;;;;;;;;;;;;;;5076470;28;1257;-81
2021/12/18 10:11:48;;;;;;;;;;;;;;;;;;5066333;28;1309;-81
2021/12/18 10:14:14;;;;;;;;;;;;;;;;;;5084638;28;1334;-82
2021/12/18 10:16:44;;;;;;;;;;;;;;;;;;5066689;28;1190;-81
2021/12/18 10:19:31;;;;;;;;;;;;;;;;;;5083727;28;1909;-82
2021/12/18 10:22:02;;;;;;;;;;;;;;;;;;5068071;28;1444;-82
2021/12/18 10:24:28;;;;;;;;;;;;;;;;;;5085660;28;1241;-82
2021/12/18 10:26:53;;;;;;;;;;;;;;;;;;5074639;28;1139;-80
2021/12/18 10:29:27;;;;;;;;;;;;;;;;;;5046854;28;1507;-81
2021/12/18 10:31:53;;;;;;;;;;;;;;;;;;5069417;28;1172;-81
2021/12/18 10:34:24;;;;;;;;;;;;;;;;;;5071757;28;1239;-81
2021/12/18 10:37:09;;;;;;;;;;;;;;;;;;5061375;28;1219;-81
2021/12/18 10:39:35;;;;;;;;;;;;;;;;;;5066129;28;1905;-81
2021/12/18 10:42:14;;;;;;;;;;;;;;;;;;5060245;28;1245;-81
2021/12/18 10:45:00;;;;;;;;;;;;;;;;;;5078373;28;1387;-81
2021/12/18 10:47:25;;;;;;;;;;;;;;;;;;5064093;28;1349;-81
2021/12/18 10:49:51;;;;;;;;;;;;;;;;;;5044434;28;1291;-81
2021/12/18 10:52:16;;;;;;;;;;;;;;;;;;5061201;28;1256;-81
2021/12/18 10:54:42;;;;;;;;;;;;;;;;;;5062205;28;1223;-81
2021/12/18 10:57:23;;;;;;;;;;;;;;;;;;5060321;28;1455;-81
2021/12/18 10:59:51;;;;;;;;;;;;;;;;;;5061549;28;1911;-82
2021/12/18 11:02:16;;;;;;;;;;;;;;;;;;5063523;28;1182;-81
2021/12/18 11:04:44;;;;;;;;;;;;;;;;;;5075289;28;1148;-82
2021/12/18 11:07:28;;;;;;;;;;;;;;;;;;5053715;28;1516;-82
2021/12/18 11:10:18;;;;;;;;;;;;;;;;;;5077478;28;1163;-82
2021/12/18 11:15:28;;;;;;;;;;;;;;;;;;5070393;28;991;-82
2021/12/18 11:17:54;;;;;;;;;;;;;;;;;;5081624;28;1902;-82
2021/12/18 11:20:19;;;;;;;;;;;;;;;;;;5071320;28;1255;-81
2021/12/18 11:22:45;;;;;;;;;;;;;;;;;;5063196;28;1203;-82
2021/12/18 11:25:12;;;;;;;;;;;;;;;;;;5074821;28;1308;-81
2021/12/18 11:27:37;;;;;;;;;;;;;;;;;;5062590;28;1219;-82
2021/12/18 11:30:03;;;;;;;;;;;;;;;;;;5080525;28;1384;-82
2021/12/18 11:32:29;;;;;;;;;;;;;;;;;;5062760;28;1152;-82
2021/12/18 11:34:56;;;;;;;;;;;;;;;;;;5081453;28;1108;-82
2021/12/18 11:37:22;;;;;;;;;;;;;;;;;;5080565;28;1191;-82
2021/12/18 11:39:48;;;;;;;;;;;;;;;;;;5065673;28;1922;-81
2021/12/18 11:42:14;;;;;;;;;;;;;;;;;;5081287;28;1258;-81
2021/12/18 11:44:51;;;;;;;;;;;;;;;;;;;;;
2021/12/18 11:47:26;;;;;;;;;;;;;;;;;;5066769;28;1080;-84
2021/12/18 11:49:52;;;;;;;;;;;;;;;;;;5062434;28;1081;-83
2021/12/18 11:52:17;;;;;;;;;;;;;;;;;;5059145;28;1169;-78
2021/12/18 11:55:01;;;;;;;;;;;;;;;;;;5071437;28;1173;-79
2021/12/18 11:57:38;;;;;;;;;;;;;;;;;;5077279;28;1234;-80
2021/12/18 12:00:24;;;;;;;;;;;;;;;;;;5071226;28;1905;-79
2021/12/18 12:02:50;;;;;;;;;;;;;;;;;;5075821;28;1297;-79
2021/12/18 12:05:30;;;;;;;;;;;;;;;;;;5080837;28;1172;-79
2021/12/18 12:08:14;;;;;;;;;;;;;;;;;;5082576;28;1278;-79
2021/12/18 12:10:59;;;;;;;;;;;;;;;;;;5084752;28;1199;-80
2021/12/18 12:13:49;;;;;;;;;;;;;;;;;;5064182;28;1354;-80
2021/12/18 12:16:15;;;;;;;;;;;;;;;;;;5079892;28;1063;-80
2021/12/18 12:18:59;;;;;;;;;;;;;;;;;;5075252;28;1906;-80
2021/12/18 12:21:37;;;;;;;;;;;;;;;;;;5076980;28;1273;-78
2021/12/18 12:24:02;;;;;;;;;;;;;;;;;;5078676;28;1025;-78
2021/12/18 12:26:34;;;;;;;;;;;;;;;;;;5067858;28;1156;-78
2021/12/18 12:28:59;;;;;;;;;;;;;;;;;;5075790;28;1175;-82
2021/12/18 12:31:28;;;;;;;;;;;;;;;;;;5066992;28;1367;-79
2021/12/18 12:34:13;;;;;;;;;;;;;;;;;;5065295;28;1227;-80
2021/12/18 12:36:45;;;;;;;;;;;;;;;;;;5062923;28;1119;-81
2021/12/18 12:39:10;;;;;;;;;;;;;;;;;;5083243;28;1906;-80
2021/12/18 12:41:41;;;;;;;;;;;;;;;;;;5084640;28;1100;-81
2021/12/18 12:44:31;;;;;;;;;;;;;;;;;;5085104;28;1324;-80
2021/12/18 12:47:16;;;;;;;;;;;;;;;;;;5066811;28;1214;-81
2021/12/18 12:49:42;;;;;;;;;;;;;;;;;;5065895;28;1148;-80
2021/12/18 12:52:12;;;;;;;;;;;;;;;;;;5061827;28;1328;-82
2021/12/18 12:54:46;;;;;;;;;;;;;;;;;;5073983;28;1206;-82
2021/12/18 12:57:24;;;;;;;;;;;;;;;;;;5084001;28;1194;-80
2021/12/18 12:59:54;;;;;;;;;;;;;;;;;;5068841;28;1882;-80
2021/12/18 13:02:23;;;;;;;;;;;;;;;;;;5090106;28;1132;-81
2021/12/18 13:04:58;;;;;;;;;;;;;;;;;;5085255;28;1116;-81
2021/12/18 13:07:23;;;;;;;;;;;;;;;;;;5084825;28;1164;-82
2021/12/18 13:09:50;;;;;;;;;;;;;;;;;;5086327;28;1167;-81
2021/12/18 13:12:15;;;;;;;;;;;;;;;;;;5065718;28;1065;-82
2021/12/18 13:14:43;;;;;;;;;;;;;;;;;;5065354;28;1387;-80
2021/12/18 13:17:17;;;;;;;;;;;;;;;;;;5063293;28;1275;-82
2021/12/18 13:19:58;;;;;;;;;;;;;;;;;;5064607;28;1882;-81
2021/12/18 13:22:28;;;;;;;;;;;;;;;;;;5066782;28;1296;-81
2021/12/18 13:25:07;;;;;;;;;;;;;;;;;;5065915;28;1259;-80
2021/12/18 13:27:33;;;;;;;;;;;;;;;;;;5065734;28;1246;-81
2021/12/18 13:30:09;;;;;;;;;;;;;;;;;;5066722;28;1315;-81
2021/12/18 13:32:34;;;;;;;;;;;;;;;;;;5088250;28;1203;-81
2021/12/18 13:34:59;;;;;;;;;;;;;;;;;;5085782;28;1202;-81
2021/12/18 13:37:25;;;;;;;;;;;;;;;;;;5084681;28;1241;-80
2021/12/18 13:39:57;;;;;;;;;;;;;;;;;;5081816;28;1969;-82
2021/12/18 13:42:23;;;;;;;;;;;;;;;;;;5047109;28;1241;-81
2021/12/18 13:44:52;;;;;;;;;;;;;;;;;;5075758;28;1121;-83
2021/12/18 13:47:20;;;;;;;;;;;;;;;;;;5067340;28;1245;-80
2021/12/18 13:49:46;;;;;;;;;;;;;;;;;;5085728;28;1353;-80
2021/12/18 13:52:11;;;;;;;;;;;;;;;;;;5068126;28;1167;-81
2021/12/18 13:54:38;;;;;;;;;;;;;;;;;;5071699;28;1158;-81
2021/12/18 13:57:04;;;;;;;;;;;;;;;;;;5057241;28;1406;-81
2021/12/18 13:59:29;;;;;;;;;;;;;;;;;;5086057;28;1874;-81
2021/12/18 14:02:00;;;;;;;;;;;;;;;;;;5065705;28;1294;-81
2021/12/18 14:04:26;;;;;;;;;;;;;;;;;;5064452;28;1222;-81
2021/12/18 14:06:52;;;;;;;;;;;;;;;;;;5059414;28;1149;-81
2021/12/18 14:09:23;;;;;;;;;;;;;;;;;;5051275;28;1121;-81
2021/12/18 14:11:56;;;;;;;;;;;;;;;;;;5074798;28;1141;-81
2021/12/18 14:14:42;;;;;;;;;;;;;;;;;;5073083;28;1486;-80
2021/12/18 14:17:09;;;;;;;;;;;;;;;;;;5071986;28;1109;-81
2021/12/18 14:19:37;;;;;;;;;;;;;;;;;;5073578;28;1898;-80
2021/12/18 14:22:03;;;;;;;;;;;;;;;;;;5063514;28;1264;-81
2021/12/18 14:24:28;;;;;;;;;;;;;;;;;;5067727;28;1277;-80
2021/12/18 14:27:05;;;;;;;;;;;;;;;;;;5065569;28;1157;-81
2021/12/18 14:29:35;;;;;;;;;;;;;;;;;;5066799;28;1148;-80
2021/12/18 14:32:01;;;;;;;;;;;;;;;;;;5065566;28;1155;-80
2021/12/18 14:34:34;;;;;;;;;;;;;;;;;;5077500;28;1203;-80
2021/12/18 14:37:02;;;;;;;;;;;;;;;;;;5085374;28;1267;-80
2021/12/18 14:39:34;;;;;;;;;;;;;;;;;;5086412;28;1963;-81
2021/12/18 14:42:23;;;;;;;;;;;;;;;;;;5084765;28;1281;-81
2021/12/18 14:45:03;;;;;;;;;;;;;;;;;;5088553;28;1124;-82
2021/12/18 14:47:28;;;;;;;;;;;;;;;;;;5089965;28;1392;-80
2021/12/18 14:49:58;;;;;;;;;;;;;;;;;;5089889;28;1377;-80
2021/12/18 14:52:25;;;;;;;;;;;;;;;;;;5089449;28;1151;-79
2021/12/18 14:54:52;;;;;;;;;;;;;;;;;;5090662;28;1203;-80
2021/12/18 14:57:22;;;;;;;;;;;;;;;;;;5073509;28;1187;-80
2021/12/18 14:59:48;;;;;;;;;;;;;;;;;;5085743;28;1945;-79
2021/12/18 15:02:13;;;;;;;;;;;;;;;;;;5075761;28;1230;-77
2021/12/18 15:04:38;;;;;;;;;;;;;;;;;;5087279;28;1203;-79
2021/12/18 15:07:06;;;;;;;;;;;;;;;;;;5083079;28;1288;-79
2021/12/18 15:09:31;;;;;;;;;;;;;;;;;;5068119;28;1333;-79
2021/12/18 15:12:03;;;;;;;;;;;;;;;;;;5077418;28;1144;-81
2021/12/18 15:14:36;;;;;;;;;;;;;;;;;;5089163;28;1199;-79
2021/12/18 15:17:05;;;;;;;;;;;;;;;;;;5085780;28;1131;-80
2021/12/18 15:19:37;;;;;;;;;;;;;;;;;;5086470;28;1890;-79
2021/12/18 15:22:04;;;;;;;;;;;;;;;;;;5076877;28;1174;-78
2021/12/18 15:24:31;;;;;;;;;;;;;;;;;;5085222;28;1317;-81
2021/12/18 15:27:02;;;;;;;;;;;;;;;;;;5083074;28;1335;-78
2021/12/18 15:29:30;;;;;;;;;;;;;;;;;;5071539;28;1192;-78
2021/12/18 15:31:56;;;;;;;;;;;;;;;;;;5085931;28;1140;-80
2021/12/18 15:34:32;;;;;;;;;;;;;;;;;;5085883;28;1162;-81
2021/12/18 15:37:00;;;;;;;;;;;;;;;;;;5086200;28;1186;-80
2021/12/18 15:39:27;;;;;;;;;;;;;;;;;;5089412;28;1906;-79
2021/12/18 15:41:52;;;;;;;;;;;;;;;;;;5086191;28;1336;-78
2021/12/18 15:44:20;;;;;;;;;;;;;;;;;;5087485;28;1189;-79
2021/12/18 15:46:46;;;;;;;;;;;;;;;;;;5092580;28;1175;-79
2021/12/18 15:49:12;;;;;;;;;;;;;;;;;;5092608;28;1138;-78
2021/12/18 15:51:37;;;;;;;;;;;;;;;;;;5070117;28;1269;-79
2021/12/18 15:54:04;;;;;;;;;;;;;;;;;;5060346;28;1084;-79
2021/12/18 15:56:39;;;;;;;;;;;;;;;;;;5060499;28;1238;-80
2021/12/18 15:59:05;;;;;;;;;;;;;;;;;;5076927;28;1877;-79
2021/12/18 16:01:31;;;;;;;;;;;;;;;;;;5081268;28;1245;-78
2021/12/18 16:03:57;;;;;;;;;;;;;;;;;;5077658;28;1160;-78
2021/12/18 16:06:22;;;;;;;;;;;;;;;;;;5056431;28;1012;-78
2021/12/18 16:08:48;;;;;;;;;;;;;;;;;;5063965;28;1192;-79
2021/12/18 16:11:15;;;;;;;;;;;;;;;;;;5058649;28;1182;-76
2021/12/18 16:13:40;;;;;;;;;;;;;;;;;;5070356;28;1249;-76
2021/12/18 16:16:07;;;;;;;;;;;;;;;;;;5079242;28;1282;-78
2021/12/18 16:18:33;;;;;;;;;;;;;;;;;;5047629;28;1886;-77
2021/12/18 16:20:59;;;;;;;;;;;;;;;;;;5072751;28;1595;-79
2021/12/18 16:23:25;;;;;;;;;;;;;;;;;;5081249;28;1128;-77
2021/12/18 16:25:51;;;;;;;;;;;;;;;;;;5058980;28;1618;-76
2021/12/18 16:28:17;;;;;;;;;;;;;;;;;;5077814;28;1178;-76
2021/12/18 16:30:42;;;;;;;;;;;;;;;;;;5079790;28;1193;-77
2021/12/18 16:33:08;;;;;;;;;;;;;;;;;;5063739;28;1190;-77
2021/12/18 16:35:33;;;;;;;;;;;;;;;;;;5077891;28;1539;-77
2021/12/18 16:40:42;;;;;;;;;;;;;;;;;;5081375;28;1162;-77
2021/12/18 16:43:08;;;;;;;;;;;;;;;;;;5070000;28;1134;-76
2021/12/18 16:45:35;;;;;;;;;;;;;;;;;;5073016;28;1202;-77
2021/12/18 16:48:00;;;;;;;;;;;;;;;;;;5079023;28;1207;-77
2021/12/18 16:50:25;;;;;;;;;;;;;;;;;;5058642;28;1259;-77
2021/12/18 16:52:50;;;;;;;;;;;;;;;;;;5077100;28;1148;-76
2021/12/18 16:55:16;;;;;;;;;;;;;;;;;;5062920;28;1195;-75
2021/12/18 16:57:44;;;;;;;;;;;;;;;;;;5061009;28;1277;-76
2021/12/18 17:00:10;;;;;;;;;;;;;;;;;;5060108;28;1877;-75
2021/12/18 17:02:35;;;;;;;;;;;;;;;;;;5059641;28;1312;-74
2021/12/18 17:05:01;;;;;;;;;;;;;;;;;;5056906;28;1163;-75
2021/12/18 17:07:26;;;;;;;;;;;;;;;;;;5076554;28;1163;-74
2021/12/18 17:09:51;;;;;;;;;;;;;;;;;;5081693;28;1203;-75
2021/12/18 17:12:16;;;;;;;;;;;;;;;;;;5060183;28;1438;-78
2021/12/18 17:14:42;;;;;;;;;;;;;;;;;;5082341;28;1377;-77
2021/12/18 17:17:11;;;;;;;;;;;;;;;;;;5079828;28;1139;-77
2021/12/18 17:19:36;;;;;;;;;;;;;;;;;;5056557;28;1890;-75
2021/12/18 17:22:02;;;;;;;;;;;;;;;;;;5048054;28;1337;-75
2021/12/18 17:24:27;;;;;;;;;;;;;;;;;;5080126;28;1401;-76
2021/12/18 17:26:53;;;;;;;;;;;;;;;;;;5079724;28;1333;-75
2021/12/18 17:29:19;;;;;;;;;;;;;;;;;;5078841;28;1265;-75
2021/12/18 17:31:45;;;;;;;;;;;;;;;;;;5056538;28;1321;-75
2021/12/18 17:34:11;;;;;;;;;;;;;;;;;;5038642;28;1187;-75
2021/12/18 17:36:36;;;;;;;;;;;;;;;;;;5055051;28;1250;-76
2021/12/18 17:39:02;;;;;;;;;;;;;;;;;;5065937;28;1911;-75
2021/12/18 17:41:34;;;;;;;;;;;;;;;;;;5077297;28;1195;-74
2021/12/18 17:44:01;;;;;;;;;;;;;;;;;;5085174;28;1295;-75
2021/12/18 17:46:26;;;;;;;;;;;;;;;;;;5060198;28;1260;-74
2021/12/18 17:48:52;;;;;;;;;;;;;;;;;;5048595;28;1298;-76
2021/12/18 17:51:17;;;;;;;;;;;;;;;;;;5060667;28;1203;-75
2021/12/18 17:53:42;;;;;;;;;;;;;;;;;;5064788;28;1041;-75
2021/12/18 17:56:08;;;;;;;;;;;;;;;;;;5062241;28;1285;-75